Leona Valley, California
Current Conditions -  °F | °C
As of 7:48 AM on Tuesday 21 Oct 2014 (Local Time) from KSDB Reporting Station
Moderate Fog Moderate Fog  
Wind Chill: 38°   Ceiling: 100
Heat Index: 47°   Visibility: 0mi
Dew Point: 44°   Wind: 30mph
Humidity: 90%   Direction: 340°NNW
Pressure: 30.05"   Gusts: 39mph
Location:  34.6849°N, 118.558°W
Report Text: KSDB 211448Z AUTO 34026G34KT M1/4SM FG VV001 08/07 A3005 RMK AO2 PK WND 34034/1443 SLP143 T00830067 51006
Loading
Personal Weather Stations






























Interactive Weather Map
Tropical Storm Tracking
New forecast layout! Learn more

10-Day Weather Forecast

Advertisements
Track Severe Weather on mobile